THY9634 LTCD-LTAC
Flight info
| Callsign | THY9634 |
|---|---|
| Flight time | N/A |
| Altitude | 38000 |
| Route | EZN UL615 SIV UT54 AVCES UL605 YUCEL |
| Aircraft | B738/M-SDE2E3FGHIRWXY/LB1 |
Departure
| Time | N/A |
|---|---|
| Airport | Erzincan Airport (LTCD) |
Arrival
| Time | 2026-05-07 21:00 |
|---|---|
| Airport | Esenboğa International Airport (LTAC) |
| Time | Latitude | Longitude | Altitude | Speed | Heading |
|---|---|---|---|---|---|
| 2026-05-07 20:14 | 39.90120 | 38.36486 | 29248 ft | 429 kts | 266° |
| 2026-05-07 20:14 | 39.89845 | 38.32563 | 29716 ft | 431 kts | 266° |
| 2026-05-07 20:15 | 39.89571 | 38.28687 | 30178 ft | 433 kts | 266° |
| 2026-05-07 20:15 | 39.89294 | 38.24807 | 30644 ft | 434 kts | 266° |
| 2026-05-07 20:15 | 39.89008 | 38.20825 | 30902 ft | 439 kts | 266° |
| 2026-05-07 20:15 | 39.88729 | 38.16929 | 31362 ft | 436 kts | 265° |
| 2026-05-07 20:16 | 39.88446 | 38.12999 | 31764 ft | 434 kts | 266° |
| 2026-05-07 20:16 | 39.88163 | 38.09091 | 32133 ft | 433 kts | 265° |
| 2026-05-07 20:16 | 39.87883 | 38.05233 | 32511 ft | 432 kts | 265° |
| 2026-05-07 20:16 | 39.87599 | 38.01330 | 32817 ft | 433 kts | 265° |
| 2026-05-07 20:17 | 39.87314 | 37.97452 | 33266 ft | 429 kts | 265° |
| 2026-05-07 20:17 | 39.87031 | 37.93581 | 33570 ft | 430 kts | 265° |
| 2026-05-07 20:17 | 39.86748 | 37.89714 | 33949 ft | 429 kts | 265° |
| 2026-05-07 20:17 | 39.86462 | 37.85821 | 34358 ft | 428 kts | 265° |
| 2026-05-07 20:18 | 39.86181 | 37.81990 | 34706 ft | 427 kts | 265° |
| 2026-05-07 20:18 | 39.85897 | 37.78148 | 35123 ft | 425 kts | 265° |
| 2026-05-07 20:18 | 39.85614 | 37.74337 | 35428 ft | 426 kts | 265° |
| 2026-05-07 20:18 | 39.85329 | 37.70523 | 35786 ft | 424 kts | 265° |
| 2026-05-07 20:19 | 39.85042 | 37.66710 | 36073 ft | 425 kts | 265° |
| 2026-05-07 20:19 | 39.84752 | 37.62868 | 36344 ft | 425 kts | 265° |
| 2026-05-07 20:19 | 39.84462 | 37.59038 | 36599 ft | 426 kts | 265° |
| 2026-05-07 20:19 | 39.84172 | 37.55228 | 36910 ft | 425 kts | 265° |
| 2026-05-07 20:20 | 39.83877 | 37.51364 | 37170 ft | 426 kts | 265° |
| 2026-05-07 20:20 | 39.83582 | 37.47519 | 37431 ft | 426 kts | 265° |
| 2026-05-07 20:20 | 39.83290 | 37.43744 | 37682 ft | 426 kts | 265° |
| 2026-05-07 20:20 | 39.82993 | 37.39926 | 37953 ft | 425 kts | 265° |
| 2026-05-07 20:21 | 39.82689 | 37.36087 | 38150 ft | 425 kts | 265° |
| 2026-05-07 20:21 | 39.82079 | 37.28423 | 38189 ft | 430 kts | 264° |
| 2026-05-07 20:22 | 39.81462 | 37.20721 | 38191 ft | 426 kts | 264° |
| 2026-05-07 20:22 | 39.80850 | 37.13108 | 38193 ft | 424 kts | 264° |
| 2026-05-07 20:23 | 39.80230 | 37.05465 | 38194 ft | 427 kts | 264° |
| 2026-05-07 20:23 | 39.79601 | 36.97800 | 38188 ft | 427 kts | 264° |
| 2026-05-07 20:24 | 39.78973 | 36.90148 | 38183 ft | 425 kts | 265° |
| 2026-05-07 20:24 | 39.78693 | 36.82499 | 38184 ft | 425 kts | 270° |
| 2026-05-07 20:25 | 39.78682 | 36.74844 | 38190 ft | 426 kts | 271° |
| 2026-05-07 20:25 | 39.78685 | 36.67118 | 38185 ft | 426 kts | 271° |
| 2026-05-07 20:26 | 39.78655 | 36.59432 | 38186 ft | 426 kts | 270° |
| 2026-05-07 20:26 | 39.78600 | 36.51747 | 38186 ft | 427 kts | 270° |
| 2026-05-07 20:27 | 39.78531 | 36.44046 | 38175 ft | 427 kts | 270° |
| 2026-05-07 20:27 | 39.78451 | 36.36324 | 38181 ft | 425 kts | 270° |
| 2026-05-07 20:28 | 39.78375 | 36.28618 | 38181 ft | 426 kts | 270° |
| 2026-05-07 20:28 | 39.78224 | 36.20969 | 38178 ft | 427 kts | 267° |
| 2026-05-07 20:29 | 39.77665 | 36.13271 | 38181 ft | 428 kts | 265° |
| 2026-05-07 20:29 | 39.76993 | 36.05639 | 38182 ft | 426 kts | 265° |
| 2026-05-07 20:30 | 39.76339 | 35.97985 | 38176 ft | 427 kts | 265° |
| 2026-05-07 20:30 | 39.75707 | 35.90292 | 38171 ft | 427 kts | 265° |
| 2026-05-07 20:31 | 39.75090 | 35.82644 | 38170 ft | 425 kts | 266° |
| 2026-05-07 20:31 | 39.74473 | 35.74984 | 38166 ft | 428 kts | 266° |
| 2026-05-07 20:32 | 39.73853 | 35.67318 | 38164 ft | 427 kts | 266° |
| 2026-05-07 20:32 | 39.73227 | 35.59639 | 38164 ft | 427 kts | 266° |
| 2026-05-07 20:33 | 39.72597 | 35.51980 | 38166 ft | 429 kts | 266° |
| 2026-05-07 20:33 | 39.71958 | 35.44303 | 38164 ft | 428 kts | 266° |
| 2026-05-07 20:34 | 39.71308 | 35.36591 | 38164 ft | 427 kts | 266° |
| 2026-05-07 20:34 | 39.70657 | 35.28916 | 38169 ft | 427 kts | 266° |
| 2026-05-07 20:35 | 39.70002 | 35.21227 | 38172 ft | 427 kts | 266° |
| 2026-05-07 20:35 | 39.69344 | 35.13565 | 38166 ft | 428 kts | 266° |
| 2026-05-07 20:36 | 39.68677 | 35.05875 | 38158 ft | 429 kts | 266° |
| 2026-05-07 20:36 | 39.68010 | 34.98240 | 38093 ft | 427 kts | 266° |
| 2026-05-07 20:36 | 39.67673 | 34.94418 | 37822 ft | 421 kts | 266° |
| 2026-05-07 20:37 | 39.67342 | 34.90713 | 37529 ft | 415 kts | 266° |
| 2026-05-07 20:37 | 39.67014 | 34.87029 | 37065 ft | 414 kts | 267° |
| 2026-05-07 20:37 | 39.66683 | 34.83300 | 36476 ft | 415 kts | 267° |
| 2026-05-07 20:37 | 39.66354 | 34.79581 | 35833 ft | 418 kts | 267° |
| 2026-05-07 20:38 | 39.66022 | 34.75849 | 35119 ft | 423 kts | 268° |
| 2026-05-07 20:38 | 39.65687 | 34.72071 | 34405 ft | 426 kts | 268° |
| 2026-05-07 20:38 | 39.65345 | 34.68254 | 33889 ft | 424 kts | 268° |
| 2026-05-07 20:38 | 39.65002 | 34.64468 | 33354 ft | 424 kts | 268° |
| 2026-05-07 20:39 | 39.64654 | 34.60664 | 32797 ft | 424 kts | 269° |
| 2026-05-07 20:39 | 39.64306 | 34.56865 | 32220 ft | 423 kts | 269° |
| 2026-05-07 20:39 | 39.63960 | 34.53087 | 31654 ft | 423 kts | 269° |
| 2026-05-07 20:39 | 39.63612 | 34.49287 | 31082 ft | 422 kts | 269° |
| 2026-05-07 20:40 | 39.63264 | 34.45521 | 30512 ft | 421 kts | 269° |
| 2026-05-07 20:40 | 39.62920 | 34.41810 | 29901 ft | 419 kts | 269° |
| 2026-05-07 20:40 | 39.62570 | 34.38062 | 29360 ft | 416 kts | 269° |
| 2026-05-07 20:40 | 39.62222 | 34.34374 | 28818 ft | 412 kts | 269° |
| 2026-05-07 20:41 | 39.61877 | 34.30723 | 28264 ft | 410 kts | 269° |
| 2026-05-07 20:41 | 39.61535 | 34.27085 | 27708 ft | 407 kts | 269° |
| 2026-05-07 20:41 | 39.61194 | 34.23459 | 27160 ft | 404 kts | 269° |
| 2026-05-07 20:41 | 39.60855 | 34.19870 | 26611 ft | 401 kts | 269° |
| 2026-05-07 20:42 | 39.60520 | 34.16336 | 26061 ft | 399 kts | 268° |
| 2026-05-07 20:42 | 39.60181 | 34.12765 | 25529 ft | 396 kts | 268° |
| 2026-05-07 20:42 | 39.59848 | 34.09279 | 24990 ft | 393 kts | 268° |
| 2026-05-07 20:42 | 39.59517 | 34.05798 | 24416 ft | 389 kts | 268° |
| 2026-05-07 20:43 | 39.59183 | 34.02327 | 23890 ft | 380 kts | 268° |
| 2026-05-07 20:43 | 39.58862 | 33.99012 | 23536 ft | 368 kts | 268° |
| 2026-05-07 20:43 | 39.58545 | 33.95760 | 23294 ft | 360 kts | 268° |
| 2026-05-07 20:43 | 39.58240 | 33.92588 | 23016 ft | 359 kts | 268° |
| 2026-05-07 20:44 | 39.57934 | 33.89383 | 22755 ft | 360 kts | 268° |
| 2026-05-07 20:44 | 39.57623 | 33.86129 | 22482 ft | 362 kts | 268° |
| 2026-05-07 20:44 | 39.57314 | 33.82923 | 22208 ft | 361 kts | 268° |
| 2026-05-07 20:44 | 39.57002 | 33.79731 | 21937 ft | 359 kts | 268° |
| 2026-05-07 20:45 | 39.56686 | 33.76525 | 21667 ft | 357 kts | 267° |
| 2026-05-07 20:45 | 39.56374 | 33.73370 | 21410 ft | 355 kts | 267° |
| 2026-05-07 20:45 | 39.56057 | 33.70173 | 21151 ft | 354 kts | 267° |
| 2026-05-07 20:45 | 39.55819 | 33.67035 | 20836 ft | 353 kts | 272° |
| 2026-05-07 20:46 | 39.55949 | 33.63889 | 20395 ft | 346 kts | 283° |
| 2026-05-07 20:46 | 39.56585 | 33.60930 | 19941 ft | 339 kts | 295° |
| 2026-05-07 20:46 | 39.57592 | 33.58235 | 19478 ft | 334 kts | 303° |
| 2026-05-07 20:46 | 39.58841 | 33.55731 | 18979 ft | 332 kts | 308° |
| 2026-05-07 20:47 | 39.60194 | 33.53310 | 18540 ft | 329 kts | 309° |
| 2026-05-07 20:47 | 39.61528 | 33.50940 | 18100 ft | 327 kts | 308° |
| 2026-05-07 20:47 | 39.62833 | 33.48523 | 17652 ft | 326 kts | 307° |
| 2026-05-07 20:47 | 39.64083 | 33.46112 | 17202 ft | 325 kts | 306° |
| 2026-05-07 20:48 | 39.65323 | 33.43652 | 16745 ft | 324 kts | 305° |
| 2026-05-07 20:48 | 39.66537 | 33.41215 | 16291 ft | 323 kts | 305° |
| 2026-05-07 20:48 | 39.67740 | 33.38792 | 15833 ft | 322 kts | 305° |
| 2026-05-07 20:48 | 39.68958 | 33.36337 | 15331 ft | 322 kts | 305° |
| 2026-05-07 20:49 | 39.70161 | 33.33911 | 14886 ft | 321 kts | 304° |
| 2026-05-07 20:49 | 39.71361 | 33.31493 | 14475 ft | 318 kts | 304° |
| 2026-05-07 20:49 | 39.72565 | 33.29066 | 14011 ft | 318 kts | 304° |
| 2026-05-07 20:49 | 39.73750 | 33.26676 | 13601 ft | 316 kts | 304° |
| 2026-05-07 20:50 | 39.74938 | 33.24280 | 13156 ft | 315 kts | 304° |
| 2026-05-07 20:50 | 39.76099 | 33.21933 | 12973 ft | 304 kts | 304° |
| 2026-05-07 20:50 | 39.77217 | 33.19670 | 12740 ft | 293 kts | 304° |
| 2026-05-07 20:50 | 39.78289 | 33.17500 | 12654 ft | 280 kts | 304° |
| 2026-05-07 20:51 | 39.79340 | 33.15373 | 12391 ft | 276 kts | 304° |
| 2026-05-07 20:51 | 39.80375 | 33.13279 | 12030 ft | 275 kts | 303° |
| 2026-05-07 20:51 | 39.81398 | 33.11207 | 11668 ft | 273 kts | 304° |
| 2026-05-07 20:51 | 39.82413 | 33.09151 | 11354 ft | 271 kts | 303° |
| 2026-05-07 20:52 | 39.83424 | 33.07099 | 11016 ft | 270 kts | 303° |
| 2026-05-07 20:52 | 39.84349 | 33.05218 | 10706 ft | 269 kts | 303° |
| 2026-05-07 20:52 | 39.85355 | 33.03172 | 10375 ft | 268 kts | 303° |
| 2026-05-07 20:52 | 39.86354 | 33.01146 | 10036 ft | 267 kts | 303° |
| 2026-05-07 20:53 | 39.87363 | 32.99098 | 9685 ft | 267 kts | 303° |
| 2026-05-07 20:53 | 39.88348 | 32.97088 | 9369 ft | 265 kts | 303° |
| 2026-05-07 20:53 | 39.89343 | 32.95058 | 9051 ft | 264 kts | 303° |
| 2026-05-07 20:53 | 39.90316 | 32.93071 | 8756 ft | 261 kts | 303° |
| 2026-05-07 20:54 | 39.91283 | 32.91097 | 8550 ft | 254 kts | 303° |
| 2026-05-07 20:54 | 39.92212 | 32.89203 | 8385 ft | 241 kts | 303° |
| 2026-05-07 20:54 | 39.93101 | 32.87418 | 8251 ft | 228 kts | 306° |
| 2026-05-07 20:54 | 39.94146 | 32.85928 | 8027 ft | 220 kts | 327° |
| 2026-05-07 20:55 | 39.95519 | 32.85222 | 7915 ft | 211 kts | 351° |
| 2026-05-07 20:55 | 39.96989 | 32.85148 | 7580 ft | 211 kts | 1° |
| 2026-05-07 20:55 | 39.98468 | 32.85226 | 7046 ft | 219 kts | 2° |
| 2026-05-07 20:55 | 39.99997 | 32.85326 | 6691 ft | 215 kts | 6° |
| 2026-05-07 20:56 | 40.01287 | 32.86070 | 6649 ft | 197 kts | 45° |
| 2026-05-07 20:56 | 40.01967 | 32.87487 | 6677 ft | 176 kts | 65° |
| 2026-05-07 20:56 | 40.02435 | 32.88837 | 6703 ft | 155 kts | 65° |
| 2026-05-07 20:56 | 40.02906 | 32.90105 | 6589 ft | 153 kts | 57° |
| 2026-05-07 20:57 | 40.03630 | 32.91134 | 6102 ft | 160 kts | 36° |
| 2026-05-07 20:57 | 40.04532 | 32.91878 | 5784 ft | 148 kts | 29° |
| 2026-05-07 20:57 | 40.05418 | 32.92565 | 5395 ft | 148 kts | 33° |
| 2026-05-07 20:57 | 40.06228 | 32.93378 | 4940 ft | 147 kts | 37° |
| 2026-05-07 20:58 | 40.07053 | 32.94150 | 4569 ft | 147 kts | 33° |
| 2026-05-07 20:58 | 40.07883 | 32.94906 | 4252 ft | 146 kts | 37° |
| 2026-05-07 20:58 | 40.08691 | 32.95701 | 3953 ft | 146 kts | 34° |
| 2026-05-07 20:58 | 40.09503 | 32.96486 | 3685 ft | 146 kts | 37° |
| 2026-05-07 20:59 | 40.10323 | 32.97275 | 3398 ft | 144 kts | 36° |
| 2026-05-07 20:59 | 40.11132 | 32.98059 | 3220 ft | 145 kts | 34° |
| 2026-05-07 20:59 | 40.11940 | 32.98828 | 3127 ft | 136 kts | 35° |
| 2026-05-07 20:59 | 40.12523 | 32.99380 | 3130 ft | 69 kts | 36° |
| 2026-05-07 21:00 | 40.12815 | 32.99658 | 3132 ft | 36 kts | 36° |
| 2026-05-07 21:00 | 40.12999 | 32.99842 | 3136 ft | 23 kts | 40° |
| 2026-05-07 21:00 | 40.13063 | 33.00023 | 3139 ft | 20 kts | 75° |
| 2026-05-07 21:00 | 40.13071 | 33.00155 | 3141 ft | 10 kts | 139° |
| 2026-05-07 21:01 | 40.13001 | 33.00140 | 3143 ft | 15 kts | 213° |
| 2026-05-07 21:01 | 40.12880 | 33.00024 | 3142 ft | 27 kts | 216° |
| 2026-05-07 21:01 | 40.12722 | 32.99875 | 3140 ft | 27 kts | 216° |
| 2026-05-07 21:01 | 40.12567 | 32.99730 | 3140 ft | 27 kts | 216° |
| 2026-05-07 21:02 | 40.12414 | 32.99580 | 3137 ft | 27 kts | 216° |
| 2026-05-07 21:02 | 40.12258 | 32.99431 | 3136 ft | 27 kts | 216° |
| 2026-05-07 21:02 | 40.12105 | 32.99286 | 3133 ft | 27 kts | 216° |
| 2026-05-07 21:02 | 40.11950 | 32.99137 | 3131 ft | 27 kts | 216° |
| 2026-05-07 21:03 | 40.11813 | 32.99043 | 3130 ft | 17 kts | 159° |
| 2026-05-07 21:03 | 40.11720 | 32.99123 | 3132 ft | 15 kts | 174° |
| 2026-05-07 21:03 | 40.11647 | 32.99036 | 3131 ft | 15 kts | 233° |
| 2026-05-07 21:03 | 40.11577 | 32.98927 | 3128 ft | 16 kts | 229° |
| 2026-05-07 21:04 | 40.11509 | 32.98924 | 3127 ft | 9 kts | 130° |
| 2026-05-07 21:04 | 40.11492 | 32.98950 | 3128 ft | 0 kts | 129° |
| 2026-05-07 21:22 | 40.11494 | 32.98947 | 3137 ft | 0 kts | 140° |
| 2026-05-07 21:22 | 40.11504 | 32.98941 | 3137 ft | 1 kts | 147° |
| 2026-05-07 21:22 | 40.11514 | 32.98927 | 3136 ft | 2 kts | 126° |
| 2026-05-07 21:23 | 40.11523 | 32.98912 | 3136 ft | 2 kts | 133° |
| 2026-05-07 21:23 | 40.11529 | 32.98903 | 3136 ft | 1 kts | 130° |
| 2026-05-07 21:23 | 40.11535 | 32.98885 | 3136 ft | 2 kts | 89° |
| 2026-05-07 21:23 | 40.11532 | 32.98867 | 3135 ft | 2 kts | 54° |
| 2026-05-07 21:24 | 40.11527 | 32.98859 | 3135 ft | 1 kts | 35° |
| 2026-05-07 21:24 | 40.11522 | 32.98855 | 3135 ft | 0 kts | 38° |
| 2026-05-07 21:24 | 40.11523 | 32.98856 | 3135 ft | 0 kts | 38° |
| 2026-05-07 21:25 | 40.11542 | 32.98875 | 3136 ft | 1 kts | 37° |
| 2026-05-07 21:25 | 40.11552 | 32.98888 | 3136 ft | 6 kts | 48° |
| 2026-05-07 21:25 | 40.11601 | 32.98942 | 3138 ft | 9 kts | 10° |
| 2026-05-07 21:25 | 40.11650 | 32.98896 | 3137 ft | 9 kts | 307° |
| 2026-05-07 21:26 | 40.11635 | 32.98838 | 3136 ft | 7 kts | 223° |
| 2026-05-07 21:26 | 40.11594 | 32.98789 | 3134 ft | 9 kts | 219° |
| 2026-05-07 21:26 | 40.11518 | 32.98720 | 3132 ft | 14 kts | 212° |
| 2026-05-07 21:26 | 40.11432 | 32.98643 | 3131 ft | 15 kts | 216° |
| 2026-05-07 21:27 | 40.11357 | 32.98544 | 3129 ft | 15 kts | 249° |
| 2026-05-07 21:27 | 40.11364 | 32.98412 | 3128 ft | 14 kts | 300° |
| 2026-05-07 21:27 | 40.11417 | 32.98312 | 3129 ft | 12 kts | 307° |
| 2026-05-07 21:27 | 40.11471 | 32.98219 | 3129 ft | 13 kts | 307° |
| 2026-05-07 21:28 | 40.11542 | 32.98151 | 3129 ft | 12 kts | 6° |
| 2026-05-07 21:28 | 40.11615 | 32.98212 | 3129 ft | 13 kts | 37° |
| 2026-05-07 21:28 | 40.11834 | 32.98416 | 3129 ft | 80 kts | 37° |
| 2026-05-07 21:28 | 40.12517 | 32.99065 | 3134 ft | 159 kts | 36° |
| 2026-05-07 21:29 | 40.13474 | 33.00042 | 3617 ft | 184 kts | 39° |
| 2026-05-07 21:29 | 40.14442 | 33.01094 | 4621 ft | 186 kts | 37° |
| 2026-05-07 21:29 | 40.15490 | 33.02027 | 5478 ft | 188 kts | 33° |
| 2026-05-07 21:29 | 40.16582 | 33.03128 | 5982 ft | 210 kts | 39° |
| 2026-05-07 21:30 | 40.17732 | 33.04398 | 6665 ft | 224 kts | 39° |
| 2026-05-07 21:30 | 40.18974 | 33.05718 | 7341 ft | 238 kts | 35° |
| 2026-05-07 21:30 | 40.20499 | 33.06641 | 7930 ft | 256 kts | 8° |
| 2026-05-07 21:30 | 40.22270 | 33.06470 | 8790 ft | 262 kts | 341° |
| 2026-05-07 21:31 | 40.23946 | 33.05409 | 9477 ft | 278 kts | 325° |
| 2026-05-07 21:31 | 40.25406 | 33.03672 | 10254 ft | 289 kts | 310° |
| 2026-05-07 21:31 | 40.26666 | 33.01598 | 11027 ft | 300 kts | 307° |
| 2026-05-07 21:31 | 40.27936 | 32.99380 | 11709 ft | 315 kts | 307° |
| 2026-05-07 21:32 | 40.29309 | 32.97013 | 12128 ft | 337 kts | 307° |
| 2026-05-07 21:32 | 40.30796 | 32.94510 | 12198 ft | 354 kts | 308° |
| 2026-05-07 21:32 | 40.32327 | 32.91977 | 12964 ft | 361 kts | 308° |
| 2026-05-07 21:32 | 40.33852 | 32.89422 | 14309 ft | 354 kts | 306° |
| 2026-05-07 21:33 | 40.35107 | 32.86732 | 15439 ft | 352 kts | 295° |
| 2026-05-07 21:33 | 40.35923 | 32.83673 | 16334 ft | 358 kts | 285° |
| 2026-05-07 21:33 | 40.36485 | 32.80499 | 17192 ft | 363 kts | 282° |
| 2026-05-07 21:33 | 40.36982 | 32.77270 | 18081 ft | 366 kts | 282° |
| 2026-05-07 21:34 | 40.37338 | 32.73970 | 18918 ft | 371 kts | 272° |
| 2026-05-07 21:34 | 40.37047 | 32.70642 | 19709 ft | 378 kts | 258° |
| 2026-05-07 21:34 | 40.36166 | 32.67385 | 20470 ft | 386 kts | 247° |
| 2026-05-07 21:34 | 40.34776 | 32.64348 | 21223 ft | 393 kts | 236° |
| 2026-05-07 21:35 | 40.32951 | 32.61681 | 21897 ft | 403 kts | 226° |
| 2026-05-07 21:35 | 40.30685 | 32.59416 | 22584 ft | 411 kts | 215° |
| 2026-05-07 21:35 | 40.28120 | 32.57717 | 23221 ft | 421 kts | 205° |
| 2026-05-07 21:35 | 40.25289 | 32.56591 | 23815 ft | 430 kts | 196° |
| 2026-05-07 21:36 | 40.22375 | 32.55811 | 24406 ft | 437 kts | 193° |
| 2026-05-07 21:36 | 40.19346 | 32.55253 | 25037 ft | 443 kts | 190° |
| 2026-05-07 21:36 | 40.16260 | 32.54788 | 25580 ft | 449 kts | 190° |
| 2026-05-07 21:36 | 40.13153 | 32.54303 | 26171 ft | 453 kts | 190° |